sensor_id;sensor_type;location;lat;lon;timestamp;temperature;humidity
42965;DHT22;28604;51.204;22.552;2023-05-07T00:01:56;6.80;92.80
42965;DHT22;28604;51.204;22.552;2023-05-07T00:04:22;6.80;93.00
42965;DHT22;28604;51.204;22.552;2023-05-07T00:06:48;6.80;93.00
42965;DHT22;28604;51.204;22.552;2023-05-07T00:09:16;6.80;93.10
42965;DHT22;28604;51.204;22.552;2023-05-07T00:11:42;6.80;93.20
42965;DHT22;28604;51.204;22.552;2023-05-07T00:14:08;6.80;93.10
42965;DHT22;28604;51.204;22.552;2023-05-07T00:16:34;6.80;93.10
42965;DHT22;28604;51.204;22.552;2023-05-07T00:19:00;6.80;93.00
42965;DHT22;28604;51.204;22.552;2023-05-07T00:21:25;6.80;93.00
42965;DHT22;28604;51.204;22.552;2023-05-07T00:23:54;6.80;93.00
42965;DHT22;28604;51.204;22.552;2023-05-07T00:26:20;6.80;93.00
42965;DHT22;28604;51.204;22.552;2023-05-07T00:28:49;6.80;93.10
42965;DHT22;28604;51.204;22.552;2023-05-07T00:31:15;6.70;93.00
42965;DHT22;28604;51.204;22.552;2023-05-07T00:33:41;6.70;92.90
42965;DHT22;28604;51.204;22.552;2023-05-07T00:36:07;6.80;92.90
42965;DHT22;28604;51.204;22.552;2023-05-07T00:38:33;6.70;93.00
42965;DHT22;28604;51.204;22.552;2023-05-07T00:41:24;6.70;93.10
42965;DHT22;28604;51.204;22.552;2023-05-07T00:43:50;6.70;93.20
42965;DHT22;28604;51.204;22.552;2023-05-07T00:46:22;6.70;92.80
42965;DHT22;28604;51.204;22.552;2023-05-07T00:48:50;6.60;92.90
42965;DHT22;28604;51.204;22.552;2023-05-07T00:51:17;6.70;93.10
42965;DHT22;28604;51.204;22.552;2023-05-07T00:53:43;6.60;93.00
42965;DHT22;28604;51.204;22.552;2023-05-07T00:56:09;6.70;93.20
42965;DHT22;28604;51.204;22.552;2023-05-07T00:58:35;6.60;92.90
42965;DHT22;28604;51.204;22.552;2023-05-07T01:01:02;6.60;92.90
42965;DHT22;28604;51.204;22.552;2023-05-07T01:03:28;6.60;92.80
42965;DHT22;28604;51.204;22.552;2023-05-07T01:05:55;6.60;92.90
42965;DHT22;28604;51.204;22.552;2023-05-07T01:08:22;6.60;93.00
42965;DHT22;28604;51.204;22.552;2023-05-07T01:10:48;6.60;92.80
42965;DHT22;28604;51.204;22.552;2023-05-07T01:13:15;6.60;92.80
42965;DHT22;28604;51.204;22.552;2023-05-07T01:15:42;6.60;92.80
42965;DHT22;28604;51.204;22.552;2023-05-07T01:18:09;6.60;93.00
42965;DHT22;28604;51.204;22.552;2023-05-07T01:20:35;6.50;93.10
42965;DHT22;28604;51.204;22.552;2023-05-07T01:23:03;6.60;93.00
42965;DHT22;28604;51.204;22.552;2023-05-07T01:25:29;6.60;93.10
42965;DHT22;28604;51.204;22.552;2023-05-07T01:27:59;6.60;92.90
42965;DHT22;28604;51.204;22.552;2023-05-07T01:30:30;6.60;93.00
42965;DHT22;28604;51.204;22.552;2023-05-07T01:33:14;6.50;93.00
42965;DHT22;28604;51.204;22.552;2023-05-07T01:35:43;6.50;92.90
42965;DHT22;28604;51.204;22.552;2023-05-07T01:38:11;6.50;92.90
42965;DHT22;28604;51.204;22.552;2023-05-07T01:40:38;6.50;92.90
42965;DHT22;28604;51.204;22.552;2023-05-07T01:43:05;6.50;92.90
42965;DHT22;28604;51.204;22.552;2023-05-07T01:45:34;6.50;92.90
42965;DHT22;28604;51.204;22.552;2023-05-07T01:48:02;6.60;92.90
42965;DHT22;28604;51.204;22.552;2023-05-07T01:50:29;6.50;93.00
42965;DHT22;28604;51.204;22.552;2023-05-07T01:52:56;6.50;93.00
42965;DHT22;28604;51.204;22.552;2023-05-07T01:55:23;6.60;92.90
42965;DHT22;28604;51.204;22.552;2023-05-07T01:57:49;6.50;92.90
42965;DHT22;28604;51.204;22.552;2023-05-07T02:00:16;6.50;92.90
42965;DHT22;28604;51.204;22.552;2023-05-07T02:02:44;6.50;92.90
42965;DHT22;28604;51.204;22.552;2023-05-07T02:05:21;6.50;93.10
42965;DHT22;28604;51.204;22.552;2023-05-07T02:07:54;6.50;93.10
42965;DHT22;28604;51.204;22.552;2023-05-07T02:10:20;6.50;93.10
42965;DHT22;28604;51.204;22.552;2023-05-07T02:12:46;6.50;93.10
42965;DHT22;28604;51.204;22.552;2023-05-07T02:15:12;6.50;93.10
42965;DHT22;28604;51.204;22.552;2023-05-07T02:18:04;6.50;93.00
42965;DHT22;28604;51.204;22.552;2023-05-07T02:20:30;6.50;93.00
42965;DHT22;28604;51.204;22.552;2023-05-07T02:22:57;6.50;93.00
42965;DHT22;28604;51.204;22.552;2023-05-07T02:25:24;6.40;93.00
42965;DHT22;28604;51.204;22.552;2023-05-07T02:27:50;6.50;92.90
42965;DHT22;28604;51.204;22.552;2023-05-07T02:33:10;6.50;92.90
42965;DHT22;28604;51.204;22.552;2023-05-07T02:35:38;6.50;92.90
42965;DHT22;28604;51.204;22.552;2023-05-07T02:38:04;6.40;92.90
42965;DHT22;28604;51.204;22.552;2023-05-07T02:40:32;6.40;92.80
42965;DHT22;28604;51.204;22.552;2023-05-07T02:42:59;6.40;93.00
42965;DHT22;28604;51.204;22.552;2023-05-07T02:45:25;6.50;92.90
42965;DHT22;28604;51.204;22.552;2023-05-07T02:47:53;6.40;92.90
42965;DHT22;28604;51.204;22.552;2023-05-07T02:50:19;6.40;92.70
42965;DHT22;28604;51.204;22.552;2023-05-07T02:52:45;6.40;92.80
42965;DHT22;28604;51.204;22.552;2023-05-07T02:55:12;6.30;92.60
42965;DHT22;28604;51.204;22.552;2023-05-07T02:57:38;6.40;92.80
42965;DHT22;28604;51.204;22.552;2023-05-07T03:00:13;6.30;93.10
42965;DHT22;28604;51.204;22.552;2023-05-07T03:02:45;6.30;93.00
42965;DHT22;28604;51.204;22.552;2023-05-07T03:05:11;6.30;92.70
42965;DHT22;28604;51.204;22.552;2023-05-07T03:07:38;6.30;92.70
42965;DHT22;28604;51.204;22.552;2023-05-07T03:10:04;6.40;92.80
42965;DHT22;28604;51.204;22.552;2023-05-07T03:12:31;6.30;92.60
42965;DHT22;28604;51.204;22.552;2023-05-07T03:14:57;6.30;92.80
42965;DHT22;28604;51.204;22.552;2023-05-07T03:17:23;6.20;93.00
42965;DHT22;28604;51.204;22.552;2023-05-07T03:19:49;6.20;92.80
42965;DHT22;28604;51.204;22.552;2023-05-07T03:22:15;6.20;92.70
42965;DHT22;28604;51.204;22.552;2023-05-07T03:24:41;6.20;92.90
42965;DHT22;28604;51.204;22.552;2023-05-07T03:27:07;6.20;92.90
42965;DHT22;28604;51.204;22.552;2023-05-07T03:29:33;6.20;92.80
42965;DHT22;28604;51.204;22.552;2023-05-07T03:31:59;6.20;92.90
42965;DHT22;28604;51.204;22.552;2023-05-07T03:34:24;6.20;92.90
42965;DHT22;28604;51.204;22.552;2023-05-07T03:36:51;6.20;92.90
42965;DHT22;28604;51.204;22.552;2023-05-07T03:39:18;6.20;92.90
42965;DHT22;28604;51.204;22.552;2023-05-07T03:41:44;6.20;92.90
42965;DHT22;28604;51.204;22.552;2023-05-07T03:44:10;6.20;93.00
42965;DHT22;28604;51.204;22.552;2023-05-07T03:46:37;6.20;92.90
42965;DHT22;28604;51.204;22.552;2023-05-07T03:49:03;6.20;93.00
42965;DHT22;28604;51.204;22.552;2023-05-07T03:51:30;6.20;93.00
42965;DHT22;28604;51.204;22.552;2023-05-07T03:53:56;6.20;92.80
42965;DHT22;28604;51.204;22.552;2023-05-07T03:56:23;6.20;92.90
42965;DHT22;28604;51.204;22.552;2023-05-07T03:58:54;6.10;93.00
42965;DHT22;28604;51.204;22.552;2023-05-07T04:01:20;6.10;92.80
42965;DHT22;28604;51.204;22.552;2023-05-07T04:03:47;6.10;93.00
42965;DHT22;28604;51.204;22.552;2023-05-07T04:06:16;6.10;93.20
42965;DHT22;28604;51.204;22.552;2023-05-07T04:08:44;6.10;93.00
42965;DHT22;28604;51.204;22.552;2023-05-07T04:11:10;6.00;93.00
42965;DHT22;28604;51.204;22.552;2023-05-07T04:13:37;6.00;93.10
42965;DHT22;28604;51.204;22.552;2023-05-07T04:16:06;6.00;93.30
42965;DHT22;28604;51.204;22.552;2023-05-07T04:18:34;6.00;93.10
42965;DHT22;28604;51.204;22.552;2023-05-07T04:21:00;6.00;93.20
42965;DHT22;28604;51.204;22.552;2023-05-07T04:23:26;6.00;93.00
42965;DHT22;28604;51.204;22.552;2023-05-07T04:25:53;5.90;93.30
42965;DHT22;28604;51.204;22.552;2023-05-07T04:28:28;5.90;93.10
42965;DHT22;28604;51.204;22.552;2023-05-07T04:30:54;6.00;93.10
42965;DHT22;28604;51.204;22.552;2023-05-07T04:33:21;5.90;93.00
42965;DHT22;28604;51.204;22.552;2023-05-07T04:35:49;6.00;93.10
42965;DHT22;28604;51.204;22.552;2023-05-07T04:38:15;6.00;92.90
42965;DHT22;28604;51.204;22.552;2023-05-07T04:40:42;6.00;93.20
42965;DHT22;28604;51.204;22.552;2023-05-07T04:43:11;5.90;93.10
42965;DHT22;28604;51.204;22.552;2023-05-07T04:45:44;6.00;93.20
42965;DHT22;28604;51.204;22.552;2023-05-07T04:48:10;6.00;93.20
42965;DHT22;28604;51.204;22.552;2023-05-07T04:50:39;5.90;93.20
42965;DHT22;28604;51.204;22.552;2023-05-07T04:53:05;5.90;93.20
42965;DHT22;28604;51.204;22.552;2023-05-07T04:55:31;5.90;93.30
42965;DHT22;28604;51.204;22.552;2023-05-07T04:57:57;6.00;93.20
42965;DHT22;28604;51.204;22.552;2023-05-07T05:00:24;6.00;93.30
42965;DHT22;28604;51.204;22.552;2023-05-07T05:02:52;6.00;93.10
42965;DHT22;28604;51.204;22.552;2023-05-07T05:05:20;6.00;93.20
42965;DHT22;28604;51.204;22.552;2023-05-07T05:07:49;6.00;93.00
42965;DHT22;28604;51.204;22.552;2023-05-07T05:10:17;6.00;93.00
42965;DHT22;28604;51.204;22.552;2023-05-07T05:12:44;6.00;93.10
42965;DHT22;28604;51.204;22.552;2023-05-07T05:15:11;5.90;93.00
42965;DHT22;28604;51.204;22.552;2023-05-07T05:17:38;5.90;93.00
42965;DHT22;28604;51.204;22.552;2023-05-07T05:20:05;6.00;93.40
42965;DHT22;28604;51.204;22.552;2023-05-07T05:22:32;5.90;93.10
42965;DHT22;28604;51.204;22.552;2023-05-07T05:24:59;5.90;93.10
42965;DHT22;28604;51.204;22.552;2023-05-07T05:27:26;5.90;93.20
42965;DHT22;28604;51.204;22.552;2023-05-07T05:29:53;5.90;93.00
42965;DHT22;28604;51.204;22.552;2023-05-07T05:32:19;5.90;93.20
42965;DHT22;28604;51.204;22.552;2023-05-07T05:34:45;6.00;93.00
42965;DHT22;28604;51.204;22.552;2023-05-07T05:37:11;5.90;93.00
42965;DHT22;28604;51.204;22.552;2023-05-07T05:39:37;5.90;93.00
42965;DHT22;28604;51.204;22.552;2023-05-07T05:42:04;5.90;93.20
42965;DHT22;28604;51.204;22.552;2023-05-07T05:44:33;5.90;93.10
42965;DHT22;28604;51.204;22.552;2023-05-07T05:46:59;6.00;93.10
42965;DHT22;28604;51.204;22.552;2023-05-07T05:49:27;6.00;92.80
42965;DHT22;28604;51.204;22.552;2023-05-07T05:51:53;6.00;92.90
42965;DHT22;28604;51.204;22.552;2023-05-07T05:54:20;6.00;92.80
42965;DHT22;28604;51.204;22.552;2023-05-07T05:56:47;6.00;92.90
42965;DHT22;28604;51.204;22.552;2023-05-07T05:59:14;6.00;92.80
42965;DHT22;28604;51.204;22.552;2023-05-07T06:01:40;6.00;92.80
42965;DHT22;28604;51.204;22.552;2023-05-07T06:04:06;6.00;92.80
42965;DHT22;28604;51.204;22.552;2023-05-07T06:06:33;6.00;92.80
42965;DHT22;28604;51.204;22.552;2023-05-07T06:09:00;6.00;92.90
42965;DHT22;28604;51.204;22.552;2023-05-07T06:11:33;6.00;92.90
42965;DHT22;28604;51.204;22.552;2023-05-07T06:14:00;6.00;93.00
42965;DHT22;28604;51.204;22.552;2023-05-07T06:16:27;6.00;93.00
42965;DHT22;28604;51.204;22.552;2023-05-07T06:18:53;6.00;92.80
42965;DHT22;28604;51.204;22.552;2023-05-07T06:21:19;6.00;93.00
42965;DHT22;28604;51.204;22.552;2023-05-07T06:23:45;6.00;92.90
42965;DHT22;28604;51.204;22.552;2023-05-07T06:32:13;6.00;92.90
42965;DHT22;28604;51.204;22.552;2023-05-07T06:34:42;6.10;93.00
42965;DHT22;28604;51.204;22.552;2023-05-07T06:37:08;6.00;92.90
42965;DHT22;28604;51.204;22.552;2023-05-07T06:39:47;6.00;92.80
42965;DHT22;28604;51.204;22.552;2023-05-07T06:42:13;6.10;92.80
42965;DHT22;28604;51.204;22.552;2023-05-07T06:44:42;6.00;93.00
42965;DHT22;28604;51.204;22.552;2023-05-07T06:47:11;6.10;92.90
42965;DHT22;28604;51.204;22.552;2023-05-07T06:49:39;6.10;92.90
42965;DHT22;28604;51.204;22.552;2023-05-07T06:52:05;6.10;92.90
42965;DHT22;28604;51.204;22.552;2023-05-07T06:54:31;6.10;92.90
42965;DHT22;28604;51.204;22.552;2023-05-07T06:56:57;6.10;92.70
42965;DHT22;28604;51.204;22.552;2023-05-07T06:59:26;6.10;92.80
42965;DHT22;28604;51.204;22.552;2023-05-07T07:01:53;6.20;92.90
42965;DHT22;28604;51.204;22.552;2023-05-07T07:04:19;6.10;92.80
42965;DHT22;28604;51.204;22.552;2023-05-07T07:06:53;6.20;92.80
42965;DHT22;28604;51.204;22.552;2023-05-07T07:09:19;6.20;92.70
42965;DHT22;28604;51.204;22.552;2023-05-07T07:11:45;6.20;93.00
42965;DHT22;28604;51.204;22.552;2023-05-07T07:14:11;6.20;93.00
42965;DHT22;28604;51.204;22.552;2023-05-07T07:16:44;6.20;92.80
42965;DHT22;28604;51.204;22.552;2023-05-07T07:19:12;6.20;92.50
42965;DHT22;28604;51.204;22.552;2023-05-07T07:21:38;6.20;92.60
42965;DHT22;28604;51.204;22.552;2023-05-07T07:24:04;6.20;92.60
42965;DHT22;28604;51.204;22.552;2023-05-07T07:26:30;6.10;92.90
42965;DHT22;28604;51.204;22.552;2023-05-07T07:28:57;6.20;92.90
42965;DHT22;28604;51.204;22.552;2023-05-07T07:31:23;6.20;92.90
42965;DHT22;28604;51.204;22.552;2023-05-07T07:33:50;6.20;92.90
42965;DHT22;28604;51.204;22.552;2023-05-07T07:36:17;6.20;92.80
42965;DHT22;28604;51.204;22.552;2023-05-07T07:38:43;6.30;92.80
42965;DHT22;28604;51.204;22.552;2023-05-07T07:41:09;6.30;92.90
42965;DHT22;28604;51.204;22.552;2023-05-07T07:43:36;6.40;92.80
42965;DHT22;28604;51.204;22.552;2023-05-07T07:46:02;6.30;92.80
42965;DHT22;28604;51.204;22.552;2023-05-07T07:48:28;6.40;92.60
42965;DHT22;28604;51.204;22.552;2023-05-07T07:50:55;6.40;92.70
42965;DHT22;28604;51.204;22.552;2023-05-07T07:53:22;6.40;92.70
42965;DHT22;28604;51.204;22.552;2023-05-07T07:55:48;6.40;92.40
42965;DHT22;28604;51.204;22.552;2023-05-07T07:58:17;6.40;92.50
42965;DHT22;28604;51.204;22.552;2023-05-07T08:00:43;6.40;92.60
42965;DHT22;28604;51.204;22.552;2023-05-07T08:03:10;6.40;92.40
42965;DHT22;28604;51.204;22.552;2023-05-07T08:05:39;6.40;92.60
42965;DHT22;28604;51.204;22.552;2023-05-07T08:08:07;6.50;92.70
42965;DHT22;28604;51.204;22.552;2023-05-07T08:10:35;6.50;92.60
42965;DHT22;28604;51.204;22.552;2023-05-07T08:13:08;6.50;92.40
42965;DHT22;28604;51.204;22.552;2023-05-07T08:15:36;6.50;92.30
42965;DHT22;28604;51.204;22.552;2023-05-07T08:18:02;6.50;92.50
42965;DHT22;28604;51.204;22.552;2023-05-07T08:20:29;6.60;92.40
42965;DHT22;28604;51.204;22.552;2023-05-07T08:22:56;6.60;92.70
42965;DHT22;28604;51.204;22.552;2023-05-07T08:25:23;6.60;92.60
42965;DHT22;28604;51.204;22.552;2023-05-07T08:27:49;6.60;92.70
42965;DHT22;28604;51.204;22.552;2023-05-07T08:30:16;6.60;92.70
42965;DHT22;28604;51.204;22.552;2023-05-07T08:32:42;6.70;92.50
42965;DHT22;28604;51.204;22.552;2023-05-07T08:35:08;6.70;92.40
42965;DHT22;28604;51.204;22.552;2023-05-07T08:37:35;6.70;92.50
42965;DHT22;28604;51.204;22.552;2023-05-07T08:40:01;6.70;92.50
42965;DHT22;28604;51.204;22.552;2023-05-07T08:42:35;6.70;92.50
42965;DHT22;28604;51.204;22.552;2023-05-07T08:45:03;6.70;92.30
42965;DHT22;28604;51.204;22.552;2023-05-07T08:47:40;6.70;92.30
42965;DHT22;28604;51.204;22.552;2023-05-07T08:50:08;6.70;92.30
42965;DHT22;28604;51.204;22.552;2023-05-07T08:52:35;6.70;92.40
42965;DHT22;28604;51.204;22.552;2023-05-07T08:55:02;6.70;92.40
42965;DHT22;28604;51.204;22.552;2023-05-07T08:57:29;6.70;92.50
42965;DHT22;28604;51.204;22.552;2023-05-07T08:59:55;6.70;92.60
42965;DHT22;28604;51.204;22.552;2023-05-07T09:02:22;6.80;92.60
42965;DHT22;28604;51.204;22.552;2023-05-07T09:04:48;6.80;92.60
42965;DHT22;28604;51.204;22.552;2023-05-07T09:07:14;6.80;92.60
42965;DHT22;28604;51.204;22.552;2023-05-07T09:09:44;6.80;92.60
42965;DHT22;28604;51.204;22.552;2023-05-07T09:12:11;6.90;92.70
42965;DHT22;28604;51.204;22.552;2023-05-07T09:14:38;6.90;92.50
42965;DHT22;28604;51.204;22.552;2023-05-07T09:17:05;6.90;92.20
42965;DHT22;28604;51.204;22.552;2023-05-07T09:19:31;6.90;92.50
42965;DHT22;28604;51.204;22.552;2023-05-07T09:22:02;6.90;92.40
42965;DHT22;28604;51.204;22.552;2023-05-07T09:24:32;7.00;92.30
42965;DHT22;28604;51.204;22.552;2023-05-07T09:27:05;7.00;92.10
42965;DHT22;28604;51.204;22.552;2023-05-07T09:29:32;7.00;91.90
42965;DHT22;28604;51.204;22.552;2023-05-07T09:32:07;7.00;91.90
42965;DHT22;28604;51.204;22.552;2023-05-07T09:34:34;7.00;92.00
42965;DHT22;28604;51.204;22.552;2023-05-07T09:37:05;7.00;92.20
42965;DHT22;28604;51.204;22.552;2023-05-07T09:39:45;7.10;92.60
42965;DHT22;28604;51.204;22.552;2023-05-07T09:42:13;7.10;92.60
42965;DHT22;28604;51.204;22.552;2023-05-07T09:44:47;7.10;92.60
42965;DHT22;28604;51.204;22.552;2023-05-07T09:47:19;7.10;92.60
42965;DHT22;28604;51.204;22.552;2023-05-07T09:49:50;7.20;92.70
42965;DHT22;28604;51.204;22.552;2023-05-07T09:52:21;7.20;92.50
42965;DHT22;28604;51.204;22.552;2023-05-07T09:54:52;7.20;92.70
42965;DHT22;28604;51.204;22.552;2023-05-07T09:57:24;7.20;92.60
42965;DHT22;28604;51.204;22.552;2023-05-07T09:59:56;7.20;92.50
42965;DHT22;28604;51.204;22.552;2023-05-07T10:02:27;7.20;92.50
42965;DHT22;28604;51.204;22.552;2023-05-07T10:04:55;7.20;92.50
42965;DHT22;28604;51.204;22.552;2023-05-07T10:07:26;7.20;92.60
42965;DHT22;28604;51.204;22.552;2023-05-07T10:09:58;7.20;92.60
42965;DHT22;28604;51.204;22.552;2023-05-07T10:12:35;7.30;92.60
42965;DHT22;28604;51.204;22.552;2023-05-07T10:15:07;7.20;92.40
42965;DHT22;28604;51.204;22.552;2023-05-07T10:17:38;7.30;92.40
42965;DHT22;28604;51.204;22.552;2023-05-07T10:20:05;7.30;92.40
42965;DHT22;28604;51.204;22.552;2023-05-07T10:22:38;7.30;92.60
42965;DHT22;28604;51.204;22.552;2023-05-07T10:25:18;7.30;92.40
42965;DHT22;28604;51.204;22.552;2023-05-07T10:27:46;7.40;92.20
42965;DHT22;28604;51.204;22.552;2023-05-07T10:30:59;7.40;92.00
42965;DHT22;28604;51.204;22.552;2023-05-07T10:33:29;7.40;92.10
42965;DHT22;28604;51.204;22.552;2023-05-07T10:36:00;7.40;92.40
42965;DHT22;28604;51.204;22.552;2023-05-07T10:38:28;7.50;92.10
42965;DHT22;28604;51.204;22.552;2023-05-07T10:40:54;7.40;91.90
42965;DHT22;28604;51.204;22.552;2023-05-07T10:43:20;7.40;91.80
42965;DHT22;28604;51.204;22.552;2023-05-07T10:46:18;7.50;92.10
42965;DHT22;28604;51.204;22.552;2023-05-07T10:51:27;7.50;91.90
42965;DHT22;28604;51.204;22.552;2023-05-07T10:56:40;7.50;91.60
42965;DHT22;28604;51.204;22.552;2023-05-07T11:01:55;7.50;91.60
42965;DHT22;28604;51.204;22.552;2023-05-07T11:04:32;7.40;91.20
42965;DHT22;28604;51.204;22.552;2023-05-07T11:07:24;7.50;91.20
42965;DHT22;28604;51.204;22.552;2023-05-07T11:15:10;7.40;91.20
42965;DHT22;28604;51.204;22.552;2023-05-07T11:17:54;7.40;91.20
42965;DHT22;28604;51.204;22.552;2023-05-07T11:26:17;7.40;90.90
42965;DHT22;28604;51.204;22.552;2023-05-07T11:28:44;7.40;90.60
42965;DHT22;28604;51.204;22.552;2023-05-07T11:31:11;7.50;90.40
42965;DHT22;28604;51.204;22.552;2023-05-07T11:33:38;7.40;90.80
42965;DHT22;28604;51.204;22.552;2023-05-07T11:36:08;7.40;90.40
42965;DHT22;28604;51.204;22.552;2023-05-07T11:38:39;7.40;90.60
42965;DHT22;28604;51.204;22.552;2023-05-07T11:41:05;7.50;90.60
42965;DHT22;28604;51.204;22.552;2023-05-07T11:43:32;7.50;90.30
42965;DHT22;28604;51.204;22.552;2023-05-07T11:46:07;7.50;90.10
42965;DHT22;28604;51.204;22.552;2023-05-07T11:48:33;7.50;90.50
42965;DHT22;28604;51.204;22.552;2023-05-07T11:51:00;7.50;90.30
42965;DHT22;28604;51.204;22.552;2023-05-07T11:53:27;7.50;90.40
42965;DHT22;28604;51.204;22.552;2023-05-07T11:55:57;7.50;90.50
42965;DHT22;28604;51.204;22.552;2023-05-07T11:58:24;7.50;90.20
42965;DHT22;28604;51.204;22.552;2023-05-07T12:00:54;7.50;90.40
42965;DHT22;28604;51.204;22.552;2023-05-07T12:03:20;7.50;90.40
42965;DHT22;28604;51.204;22.552;2023-05-07T12:05:47;7.50;90.60
42965;DHT22;28604;51.204;22.552;2023-05-07T12:08:17;7.60;90.60
42965;DHT22;28604;51.204;22.552;2023-05-07T12:10:45;7.60;90.30
42965;DHT22;28604;51.204;22.552;2023-05-07T12:13:22;7.60;89.30
42965;DHT22;28604;51.204;22.552;2023-05-07T12:15:51;7.50;90.10
42965;DHT22;28604;51.204;22.552;2023-05-07T12:18:17;7.50;90.10
42965;DHT22;28604;51.204;22.552;2023-05-07T12:20:43;7.60;90.10
42965;DHT22;28604;51.204;22.552;2023-05-07T12:23:10;7.60;89.50
42965;DHT22;28604;51.204;22.552;2023-05-07T12:25:38;7.50;89.50
42965;DHT22;28604;51.204;22.552;2023-05-07T12:28:05;7.60;89.10
42965;DHT22;28604;51.204;22.552;2023-05-07T12:30:41;7.50;89.20
42965;DHT22;28604;51.204;22.552;2023-05-07T12:33:08;7.60;88.70
42965;DHT22;28604;51.204;22.552;2023-05-07T12:35:41;7.60;89.10
42965;DHT22;28604;51.204;22.552;2023-05-07T12:38:09;7.50;89.60
42965;DHT22;28604;51.204;22.552;2023-05-07T12:40:46;7.60;89.60
42965;DHT22;28604;51.204;22.552;2023-05-07T12:43:27;7.60;89.10
42965;DHT22;28604;51.204;22.552;2023-05-07T12:45:59;7.60;88.70
42965;DHT22;28604;51.204;22.552;2023-05-07T12:48:25;7.60;88.10
42965;DHT22;28604;51.204;22.552;2023-05-07T12:50:53;7.60;88.10
42965;DHT22;28604;51.204;22.552;2023-05-07T12:53:22;7.60;88.50
42965;DHT22;28604;51.204;22.552;2023-05-07T12:55:51;7.60;88.10
42965;DHT22;28604;51.204;22.552;2023-05-07T12:58:19;7.60;88.30
42965;DHT22;28604;51.204;22.552;2023-05-07T13:00:48;7.60;88.50
42965;DHT22;28604;51.204;22.552;2023-05-07T13:03:28;7.60;88.00
42965;DHT22;28604;51.204;22.552;2023-05-07T13:05:59;7.60;88.60
42965;DHT22;28604;51.204;22.552;2023-05-07T13:08:25;7.70;88.50
42965;DHT22;28604;51.204;22.552;2023-05-07T13:10:52;7.70;88.50
42965;DHT22;28604;51.204;22.552;2023-05-07T13:13:19;7.70;87.40
42965;DHT22;28604;51.204;22.552;2023-05-07T13:15:46;7.70;87.80
42965;DHT22;28604;51.204;22.552;2023-05-07T13:18:12;7.70;87.50
42965;DHT22;28604;51.204;22.552;2023-05-07T13:20:39;7.80;87.60
42965;DHT22;28604;51.204;22.552;2023-05-07T13:23:05;7.80;87.60
42965;DHT22;28604;51.204;22.552;2023-05-07T13:25:31;7.80;87.50
42965;DHT22;28604;51.204;22.552;2023-05-07T13:27:57;7.80;87.80
42965;DHT22;28604;51.204;22.552;2023-05-07T13:30:23;7.80;87.60
42965;DHT22;28604;51.204;22.552;2023-05-07T13:32:49;7.80;87.80
42965;DHT22;28604;51.204;22.552;2023-05-07T13:35:16;7.80;87.30
42965;DHT22;28604;51.204;22.552;2023-05-07T13:37:42;7.80;87.70
42965;DHT22;28604;51.204;22.552;2023-05-07T13:40:08;7.90;87.40
42965;DHT22;28604;51.204;22.552;2023-05-07T13:42:34;7.80;86.50
42965;DHT22;28604;51.204;22.552;2023-05-07T13:45:00;7.90;87.30
42965;DHT22;28604;51.204;22.552;2023-05-07T13:47:28;7.80;86.80
42965;DHT22;28604;51.204;22.552;2023-05-07T13:49:54;7.90;87.30
42965;DHT22;28604;51.204;22.552;2023-05-07T13:52:20;7.90;86.80
42965;DHT22;28604;51.204;22.552;2023-05-07T13:54:46;7.90;86.60
42965;DHT22;28604;51.204;22.552;2023-05-07T13:57:12;7.90;85.80
42965;DHT22;28604;51.204;22.552;2023-05-07T13:59:38;7.80;85.90
42965;DHT22;28604;51.204;22.552;2023-05-07T14:02:04;7.90;86.10
42965;DHT22;28604;51.204;22.552;2023-05-07T14:04:30;7.90;85.90
42965;DHT22;28604;51.204;22.552;2023-05-07T14:06:56;7.90;87.00
42965;DHT22;28604;51.204;22.552;2023-05-07T14:09:22;8.00;86.20
42965;DHT22;28604;51.204;22.552;2023-05-07T14:11:48;8.00;86.40
42965;DHT22;28604;51.204;22.552;2023-05-07T14:14:18;8.00;86.80
42965;DHT22;28604;51.204;22.552;2023-05-07T14:16:44;8.00;86.10
42965;DHT22;28604;51.204;22.552;2023-05-07T14:19:11;7.90;85.70
42965;DHT22;28604;51.204;22.552;2023-05-07T14:21:37;7.90;86.20
42965;DHT22;28604;51.204;22.552;2023-05-07T14:24:06;7.90;85.20
42965;DHT22;28604;51.204;22.552;2023-05-07T14:26:32;7.80;85.80
42965;DHT22;28604;51.204;22.552;2023-05-07T14:28:58;7.90;86.00
42965;DHT22;28604;51.204;22.552;2023-05-07T14:31:25;7.80;85.60
42965;DHT22;28604;51.204;22.552;2023-05-07T14:33:51;7.80;85.80
42965;DHT22;28604;51.204;22.552;2023-05-07T14:36:18;7.80;85.90
42965;DHT22;28604;51.204;22.552;2023-05-07T14:38:46;7.90;85.70
42965;DHT22;28604;51.204;22.552;2023-05-07T14:41:12;7.90;86.00
42965;DHT22;28604;51.204;22.552;2023-05-07T14:43:38;7.90;86.50
42965;DHT22;28604;51.204;22.552;2023-05-07T14:46:04;7.90;86.10
42965;DHT22;28604;51.204;22.552;2023-05-07T14:48:30;7.90;85.40
42965;DHT22;28604;51.204;22.552;2023-05-07T14:50:56;7.90;85.70
42965;DHT22;28604;51.204;22.552;2023-05-07T14:53:23;7.90;86.00
42965;DHT22;28604;51.204;22.552;2023-05-07T14:55:49;8.00;85.70
42965;DHT22;28604;51.204;22.552;2023-05-07T14:58:15;7.90;85.00
42965;DHT22;28604;51.204;22.552;2023-05-07T15:00:40;7.90;85.50
42965;DHT22;28604;51.204;22.552;2023-05-07T15:03:08;7.90;86.00
42965;DHT22;28604;51.204;22.552;2023-05-07T15:05:36;7.90;85.70
42965;DHT22;28604;51.204;22.552;2023-05-07T15:08:02;7.90;85.20
42965;DHT22;28604;51.204;22.552;2023-05-07T15:10:28;7.90;85.60
42965;DHT22;28604;51.204;22.552;2023-05-07T15:12:54;8.00;85.80
42965;DHT22;28604;51.204;22.552;2023-05-07T15:15:20;7.90;85.60
42965;DHT22;28604;51.204;22.552;2023-05-07T15:17:47;7.90;85.30
42965;DHT22;28604;51.204;22.552;2023-05-07T15:20:13;7.90;85.90
42965;DHT22;28604;51.204;22.552;2023-05-07T15:22:39;8.00;85.40
42965;DHT22;28604;51.204;22.552;2023-05-07T15:25:07;7.90;86.10
42965;DHT22;28604;51.204;22.552;2023-05-07T15:27:33;8.00;86.10
42965;DHT22;28604;51.204;22.552;2023-05-07T15:29:59;8.00;85.30
42965;DHT22;28604;51.204;22.552;2023-05-07T15:32:25;8.00;85.30
42965;DHT22;28604;51.204;22.552;2023-05-07T15:34:51;8.00;85.60
42965;DHT22;28604;51.204;22.552;2023-05-07T15:37:17;7.90;85.50
42965;DHT22;28604;51.204;22.552;2023-05-07T15:39:43;7.90;85.90
42965;DHT22;28604;51.204;22.552;2023-05-07T15:42:09;7.90;86.00
42965;DHT22;28604;51.204;22.552;2023-05-07T15:44:35;7.90;85.20
42965;DHT22;28604;51.204;22.552;2023-05-07T15:47:01;7.90;85.20
42965;DHT22;28604;51.204;22.552;2023-05-07T15:49:27;7.80;85.60
42965;DHT22;28604;51.204;22.552;2023-05-07T15:51:53;7.80;86.20
42965;DHT22;28604;51.204;22.552;2023-05-07T15:54:20;7.80;85.80
42965;DHT22;28604;51.204;22.552;2023-05-07T15:56:46;7.80;85.70
42965;DHT22;28604;51.204;22.552;2023-05-07T15:59:12;7.80;86.20
42965;DHT22;28604;51.204;22.552;2023-05-07T16:01:40;7.80;85.30
42965;DHT22;28604;51.204;22.552;2023-05-07T16:04:07;7.80;85.60